Time;durP1;ratioP1;P1;durP2;ratioP2;P2;SDS_P1;SDS_P2;PMS_P1;PMS_P2;Temp;Humidity;BMP_temperature;BMP_pressure;BME280_temperature;BME280_humidity;BME280_pressure;Samples;Min_cycle;Max_cycle;Signal;HPM_P1;HPM_P2
2022/06/06 00:00:10;;;;;;;9.30;6.67;;;;;;;;;;4869962;29;20662;-72
2022/06/06 00:02:54;;;;;;;9.30;6.27;;;;;;;;;;4841568;29;20187;-71
2022/06/06 00:05:21;;;;;;;7.73;6.30;;;;;;;;;;4859624;29;20531;-71
2022/06/06 00:08:05;;;;;;;7.17;6.13;;;;;;;;;;4862207;29;20892;-71
2022/06/06 00:10:32;;;;;;;8.83;6.30;;;;;;;;;;4854411;29;20553;-71
2022/06/06 00:13:17;;;;;;;9.63;6.57;;;;;;;;;;4864778;29;20220;-72
2022/06/06 00:15:43;;;;;;;9.80;6.27;;;;;;;;;;4863509;29;20208;-71
2022/06/06 00:18:29;;;;;;;8.53;5.70;;;;;;;;;;4869735;29;20189;-72
2022/06/06 00:20:57;;;;;;;10.57;6.30;;;;;;;;;;4851825;29;20204;-72
2022/06/06 00:23:24;;;;;;;10.40;5.73;;;;;;;;;;4866533;29;20296;-72
2022/06/06 00:25:50;;;;;;;8.53;5.83;;;;;;;;;;4859750;29;20208;-72
2022/06/06 00:28:17;;;;;;;7.90;5.70;;;;;;;;;;4842148;29;20678;-72
2022/06/06 00:30:44;;;;;;;12.07;7.37;;;;;;;;;;4873517;29;20217;-72
2022/06/06 00:35:56;;;;;;;14.43;6.50;;;;;;;;;;4840895;29;20697;-72
2022/06/06 00:38:23;;;;;;;12.13;6.60;;;;;;;;;;4845863;29;20189;-71
2022/06/06 00:40:50;;;;;;;16.00;6.70;;;;;;;;;;4805261;29;1228298;-72
2022/06/06 00:43:35;;;;;;;16.73;6.10;;;;;;;;;;4819678;29;20269;-71
2022/06/06 00:46:02;;;;;;;11.37;6.40;;;;;;;;;;4832232;29;20234;-72
2022/06/06 00:48:38;;;;;;;14.33;6.30;;;;;;;;;;4826346;29;20277;-72
2022/06/06 00:51:11;;;;;;;14.03;6.33;;;;;;;;;;4832266;29;20200;-72
2022/06/06 00:53:38;;;;;;;15.40;6.00;;;;;;;;;;4823353;29;20223;-71
2022/06/06 00:56:14;;;;;;;12.57;5.83;;;;;;;;;;4819973;29;20214;-72
2022/06/06 00:58:42;;;;;;;11.93;5.97;;;;;;;;;;4833463;29;20281;-72
2022/06/06 01:01:08;;;;;;;9.53;5.97;;;;;;;;;;4824529;29;20202;-71
2022/06/06 01:03:36;;;;;;;9.90;6.17;;;;;;;;;;4822681;29;20671;-72
2022/06/06 01:06:03;;;;;;;11.00;6.93;;;;;;;;;;4807597;29;20195;-72
2022/06/06 01:08:30;;;;;;;10.20;7.10;;;;;;;;;;4820404;29;20245;-72
2022/06/06 01:10:57;;;;;;;10.00;7.23;;;;;;;;;;4820611;29;20206;-72
2022/06/06 01:13:25;;;;;;;11.10;7.00;;;;;;;;;;4817829;29;20325;-71
2022/06/06 01:16:11;;;;;;;9.80;6.97;;;;;;;;;;4820792;29;20662;-71
2022/06/06 01:18:50;;;;;;;9.57;6.83;;;;;;;;;;4818443;29;20191;-71
2022/06/06 01:21:17;;;;;;;8.33;6.37;;;;;;;;;;4819562;29;20203;-71
2022/06/06 01:24:05;;;;;;;13.30;6.93;;;;;;;;;;4819730;29;20199;-71
2022/06/06 01:26:51;;;;;;;9.60;6.67;;;;;;;;;;4812956;29;20207;-71
2022/06/06 01:29:23;;;;;;;10.23;6.20;;;;;;;;;;4817989;29;20211;-71
2022/06/06 01:31:51;;;;;;;9.10;6.43;;;;;;;;;;4818312;29;20203;-71
2022/06/06 01:34:22;;;;;;;9.43;6.50;;;;;;;;;;4819664;29;20706;-71
2022/06/06 01:36:50;;;;;;;10.67;6.40;;;;;;;;;;4800095;29;20624;-72
2022/06/06 01:39:16;;;;;;;10.03;5.87;;;;;;;;;;4808775;29;20199;-71
2022/06/06 01:42:03;;;;;;;10.93;7.07;;;;;;;;;;4844397;29;20230;-72
2022/06/06 01:44:30;;;;;;;7.87;6.10;;;;;;;;;;4812918;29;20213;-71
2022/06/06 01:46:57;;;;;;;7.97;6.20;;;;;;;;;;4855985;29;20194;-71
2022/06/06 01:49:24;;;;;;;8.00;5.80;;;;;;;;;;4829618;29;20833;-72
2022/06/06 01:51:56;;;;;;;8.13;6.10;;;;;;;;;;4839407;29;20201;-72
2022/06/06 01:54:42;;;;;;;9.03;6.10;;;;;;;;;;4856992;29;20658;-72
2022/06/06 01:57:10;;;;;;;8.73;6.43;;;;;;;;;;4856184;29;20200;-72
2022/06/06 01:59:37;;;;;;;17.60;10.23;;;;;;;;;;4840565;29;20208;-72
2022/06/06 02:02:04;;;;;;;11.13;7.47;;;;;;;;;;4853519;29;20204;-72
2022/06/06 02:04:30;;;;;;;13.47;7.53;;;;;;;;;;4851007;29;20316;-72
2022/06/06 02:07:14;;;;;;;10.43;6.83;;;;;;;;;;4856828;29;20546;-72
2022/06/06 02:09:42;;;;;;;10.07;7.40;;;;;;;;;;4856441;29;20190;-72
2022/06/06 02:12:26;;;;;;;8.53;6.57;;;;;;;;;;4840963;29;20185;-72
2022/06/06 02:14:52;;;;;;;9.97;6.97;;;;;;;;;;4855149;29;20221;-71
2022/06/06 02:17:36;;;;;;;8.63;6.40;;;;;;;;;;4856269;29;20189;-72
2022/06/06 02:20:04;;;;;;;10.27;7.30;;;;;;;;;;4856235;29;20193;-72
2022/06/06 02:22:31;;;;;;;10.47;7.17;;;;;;;;;;4834728;29;20194;-72
2022/06/06 02:24:58;;;;;;;9.93;7.07;;;;;;;;;;4855687;29;20193;-72
2022/06/06 02:27:25;;;;;;;10.00;7.23;;;;;;;;;;4854312;29;20201;-72
2022/06/06 02:29:52;;;;;;;9.43;7.07;;;;;;;;;;4836275;29;20198;-72
2022/06/06 02:32:19;;;;;;;10.17;7.07;;;;;;;;;;4847080;29;20197;-72
2022/06/06 02:34:45;;;;;;;9.90;7.30;;;;;;;;;;4854824;29;20226;-72
2022/06/06 02:37:12;;;;;;;11.47;7.33;;;;;;;;;;4855529;29;20197;-72
2022/06/06 02:39:39;;;;;;;10.53;6.90;;;;;;;;;;4837860;29;20678;-72
2022/06/06 02:42:06;;;;;;;11.13;7.80;;;;;;;;;;4854013;29;20317;-72
2022/06/06 02:44:32;;;;;;;11.17;7.20;;;;;;;;;;4852716;29;20676;-73
2022/06/06 02:46:59;;;;;;;11.17;7.53;;;;;;;;;;4855213;29;20197;-71
2022/06/06 02:49:26;;;;;;;11.83;7.57;;;;;;;;;;4856476;29;20197;-72
2022/06/06 02:51:53;;;;;;;8.83;6.67;;;;;;;;;;4854465;29;20193;-72
2022/06/06 02:54:19;;;;;;;14.03;7.03;;;;;;;;;;4855908;29;20209;-72
2022/06/06 02:56:46;;;;;;;10.57;7.27;;;;;;;;;;4849861;29;20205;-72
2022/06/06 02:59:13;;;;;;;10.87;7.90;;;;;;;;;;4855050;29;20193;-72
2022/06/06 03:01:40;;;;;;;13.53;8.00;;;;;;;;;;4838047;29;20197;-72
2022/06/06 03:04:07;;;;;;;9.27;7.40;;;;;;;;;;4856002;29;20280;-72
2022/06/06 03:06:41;;;;;;;10.77;7.13;;;;;;;;;;4839083;29;20277;-73
2022/06/06 03:09:14;;;;;;;12.47;7.60;;;;;;;;;;4838844;29;20193;-72
2022/06/06 03:11:48;;;;;;;9.97;7.07;;;;;;;;;;4853058;29;20210;-72
2022/06/06 03:14:18;;;;;;;12.50;6.97;;;;;;;;;;4838002;29;20225;-71
2022/06/06 03:23:18;;;;;;;9.87;6.93;;;;;;;;;;4852206;29;20232;-71
2022/06/06 03:25:48;;;;;;;12.67;6.50;;;;;;;;;;4856036;29;20305;-71
2022/06/06 03:28:41;;;;;;;10.53;5.80;;;;;;;;;;4835647;29;20204;-72
2022/06/06 03:31:11;;;;;;;10.47;6.47;;;;;;;;;;4852622;29;20242;-72
2022/06/06 03:33:46;;;;;;;10.80;6.80;;;;;;;;;;4853094;29;20214;-71
2022/06/06 03:36:17;;;;;;;7.67;6.43;;;;;;;;;;4832726;29;20202;-71
2022/06/06 03:39:07;;;;;;;11.23;6.77;;;;;;;;;;4842815;29;20232;-71
2022/06/06 03:41:52;;;;;;;11.00;6.70;;;;;;;;;;4843529;29;20243;-73
2022/06/06 03:44:29;;;;;;;11.57;6.80;;;;;;;;;;4834512;29;20236;-72
2022/06/06 03:47:04;;;;;;;8.63;6.63;;;;;;;;;;4857550;29;20261;-72
2022/06/06 03:49:47;;;;;;;11.67;7.10;;;;;;;;;;4838477;29;20535;-71
2022/06/06 03:52:33;;;;;;;12.30;6.70;;;;;;;;;;4851991;29;20544;-71
2022/06/06 03:55:32;;;;;;;10.70;7.33;;;;;;;;;;4856812;29;20213;-71
2022/06/06 03:58:00;;;;;;;11.33;7.37;;;;;;;;;;4839662;29;20204;-69
2022/06/06 04:00:44;;;;;;;10.13;6.30;;;;;;;;;;4854318;29;20189;-70
2022/06/06 04:03:11;;;;;;;15.13;7.40;;;;;;;;;;4834281;29;21305;-70
2022/06/06 04:05:39;;;;;;;11.67;7.27;;;;;;;;;;4841470;29;20198;-72
2022/06/06 04:08:06;;;;;;;11.27;6.80;;;;;;;;;;4857819;29;20209;-71
2022/06/06 04:10:41;;;;;;;10.10;7.00;;;;;;;;;;4841456;29;20257;-71
2022/06/06 04:13:15;;;;;;;11.37;6.90;;;;;;;;;;4857774;29;20297;-72
2022/06/06 04:15:55;;;;;;;12.13;6.90;;;;;;;;;;4836494;29;21044;-69
2022/06/06 04:18:31;;;;;;;8.17;6.80;;;;;;;;;;4835387;29;20604;-70
2022/06/06 04:21:02;;;;;;;10.00;7.03;;;;;;;;;;4853405;29;20665;-71
2022/06/06 04:23:46;;;;;;;11.20;6.60;;;;;;;;;;4860654;29;20187;-70
2022/06/06 04:26:18;;;;;;;8.60;6.30;;;;;;;;;;4857977;29;20185;-71
2022/06/06 04:29:04;;;;;;;15.13;6.97;;;;;;;;;;4839868;29;20550;-69
2022/06/06 04:31:51;;;;;;;9.63;6.60;;;;;;;;;;4858397;29;20194;-68
2022/06/06 04:34:21;;;;;;;10.07;7.13;;;;;;;;;;4842605;29;20625;-70
2022/06/06 04:36:56;;;;;;;13.20;7.10;;;;;;;;;;4861018;29;20259;-70
2022/06/06 04:39:23;;;;;;;16.37;6.60;;;;;;;;;;4841032;29;20200;-69
2022/06/06 04:41:57;;;;;;;12.43;5.83;;;;;;;;;;4858758;29;20253;-72
2022/06/06 04:44:31;;;;;;;13.13;6.20;;;;;;;;;;4862690;29;20188;-70
2022/06/06 04:47:05;;;;;;;9.17;5.90;;;;;;;;;;4845269;29;20204;-70
2022/06/06 04:49:32;;;;;;;13.83;6.23;;;;;;;;;;4846910;29;20308;-70
2022/06/06 04:51:59;;;;;;;7.63;5.57;;;;;;;;;;4846669;29;20580;-71
2022/06/06 04:54:26;;;;;;;8.70;5.63;;;;;;;;;;4856459;29;20235;-70
2022/06/06 04:56:53;;;;;;;8.83;5.00;;;;;;;;;;4843770;29;20220;-71
2022/06/06 04:59:20;;;;;;;6.50;5.33;;;;;;;;;;4843160;29;20202;-70
2022/06/06 05:01:47;;;;;;;11.00;6.37;;;;;;;;;;4845910;29;20208;-70
2022/06/06 05:04:14;;;;;;;9.60;5.60;;;;;;;;;;4837089;29;20201;-70
2022/06/06 05:06:47;;;;;;;14.77;6.33;;;;;;;;;;4857073;29;20205;-70
2022/06/06 05:09:17;;;;;;;9.00;5.70;;;;;;;;;;4857451;29;20193;-70
2022/06/06 05:11:43;;;;;;;8.73;5.27;;;;;;;;;;4861118;29;21062;-70
2022/06/06 05:14:10;;;;;;;9.30;4.97;;;;;;;;;;4847039;29;20276;-70
2022/06/06 05:16:39;;;;;;;7.43;4.37;;;;;;;;;;4861031;29;20209;-70
2022/06/06 05:19:15;;;;;;;6.77;4.60;;;;;;;;;;4838083;29;20228;-70
2022/06/06 05:21:49;;;;;;;8.37;4.53;;;;;;;;;;4841993;29;20204;-68
2022/06/06 05:24:19;;;;;;;8.30;4.90;;;;;;;;;;4838476;29;20861;-69
2022/06/06 05:26:56;;;;;;;8.10;4.47;;;;;;;;;;4859575;29;20283;-70
2022/06/06 05:29:35;;;;;;;6.33;4.13;;;;;;;;;;4840823;29;20198;-70
2022/06/06 05:32:02;;;;;;;5.77;4.13;;;;;;;;;;4858461;29;20235;-70
2022/06/06 05:34:34;;;;;;;6.27;3.90;;;;;;;;;;4857220;29;20571;-70
2022/06/06 05:37:04;;;;;;;8.13;4.10;;;;;;;;;;4828476;29;20198;-71
2022/06/06 05:39:30;;;;;;;7.17;3.80;;;;;;;;;;4856280;29;20973;-68
2022/06/06 05:42:00;;;;;;;4.70;3.97;;;;;;;;;;4853638;29;20282;-70
2022/06/06 05:44:45;;;;;;;7.37;3.97;;;;;;;;;;4864814;29;21527;-69
2022/06/06 05:47:16;;;;;;;5.00;3.70;;;;;;;;;;4856660;29;20189;-69
2022/06/06 05:49:52;;;;;;;5.17;3.10;;;;;;;;;;4852996;29;20261;-70
2022/06/06 05:52:19;;;;;;;5.93;3.80;;;;;;;;;;4857157;29;20268;-70
2022/06/06 05:54:58;;;;;;;7.77;4.10;;;;;;;;;;4863266;29;20578;-70
2022/06/06 05:57:24;;;;;;;5.90;4.00;;;;;;;;;;4854554;29;20249;-68
2022/06/06 06:00:10;;;;;;;10.43;3.97;;;;;;;;;;4856024;29;20201;-69
2022/06/06 06:02:42;;;;;;;5.17;4.00;;;;;;;;;;4856380;29;20750;-69
2022/06/06 06:05:11;;;;;;;4.90;3.43;;;;;;;;;;4829463;29;20208;-69
2022/06/06 06:07:38;;;;;;;6.63;4.10;;;;;;;;;;4856602;29;20189;-69
2022/06/06 06:10:25;;;;;;;5.23;3.50;;;;;;;;;;4854209;29;20213;-69
2022/06/06 06:13:17;;;;;;;6.23;3.50;;;;;;;;;;4830604;29;20212;-69
2022/06/06 06:15:44;;;;;;;8.40;3.70;;;;;;;;;;4854784;29;20228;-69
2022/06/06 06:18:10;;;;;;;7.03;3.70;;;;;;;;;;4836668;29;20209;-69
2022/06/06 06:20:38;;;;;;;6.43;3.73;;;;;;;;;;4849767;29;20228;-69
2022/06/06 06:23:06;;;;;;;4.83;3.73;;;;;;;;;;4836374;29;20201;-69
2022/06/06 06:25:34;;;;;;;5.50;3.97;;;;;;;;;;4848473;29;20194;-69
2022/06/06 06:28:06;;;;;;;7.73;3.53;;;;;;;;;;4824630;29;20204;-70
2022/06/06 06:30:51;;;;;;;4.90;3.20;;;;;;;;;;4837577;29;20208;-70
2022/06/06 06:33:18;;;;;;;6.07;3.40;;;;;;;;;;4855834;29;20217;-69
2022/06/06 06:35:48;;;;;;;4.53;3.80;;;;;;;;;;4854465;29;20229;-69
2022/06/06 06:38:47;;;;;;;5.20;3.90;;;;;;;;;;4855477;29;20203;-69
2022/06/06 06:41:33;;;;;;;4.57;4.00;;;;;;;;;;4814997;29;20269;-70
2022/06/06 06:44:00;;;;;;;6.90;3.90;;;;;;;;;;4856014;29;20288;-69
2022/06/06 06:46:33;;;;;;;4.83;3.23;;;;;;;;;;4855932;29;20578;-70
2022/06/06 06:49:20;;;;;;;4.70;3.97;;;;;;;;;;4855943;29;20197;-69
2022/06/06 06:52:10;;;;;;;9.13;4.00;;;;;;;;;;4856103;29;20213;-69
2022/06/06 06:54:38;;;;;;;5.13;3.80;;;;;;;;;;4810326;29;20226;-69
2022/06/06 06:57:05;;;;;;;5.13;3.93;;;;;;;;;;4854717;29;20192;-70
2022/06/06 06:59:38;;;;;;;5.13;3.80;;;;;;;;;;4854535;29;20872;-68
2022/06/06 07:10:53;;;;;;;5.67;4.07;;;;;;;;;;4835392;29;20202;-68
2022/06/06 07:13:56;;;;;;;5.77;3.90;;;;;;;;;;4836123;29;20189;-68
2022/06/06 07:16:30;;;;;;;7.43;4.33;;;;;;;;;;4850594;29;20221;-68
2022/06/06 07:19:17;;;;;;;6.83;4.30;;;;;;;;;;4836610;29;20200;-68
2022/06/06 07:21:45;;;;;;;7.20;4.00;;;;;;;;;;4853431;29;20262;-68
2022/06/06 07:24:14;;;;;;;8.33;4.60;;;;;;;;;;4835804;29;20197;-67
2022/06/06 07:26:42;;;;;;;5.10;4.30;;;;;;;;;;4836078;29;20213;-67
2022/06/06 07:29:13;;;;;;;6.03;3.70;;;;;;;;;;4824861;29;20677;-67
2022/06/06 07:31:58;;;;;;;6.70;3.83;;;;;;;;;;4854432;29;20550;-68
2022/06/06 07:34:45;;;;;;;6.93;3.97;;;;;;;;;;4843167;29;20566;-69
2022/06/06 07:37:34;;;;;;;4.77;4.03;;;;;;;;;;4843517;29;20204;-68
2022/06/06 07:40:07;;;;;;;7.33;4.43;;;;;;;;;;4842342;29;20966;-69
2022/06/06 07:42:54;;;;;;;5.00;3.70;;;;;;;;;;4838913;29;20198;-69
2022/06/06 07:45:36;;;;;;;4.60;4.10;;;;;;;;;;4847200;29;20201;-69
2022/06/06 07:48:09;;;;;;;5.23;4.00;;;;;;;;;;4855391;29;20681;-68
2022/06/06 07:50:54;;;;;;;6.53;4.10;;;;;;;;;;4841353;29;20201;-68
2022/06/06 07:53:24;;;;;;;4.53;4.13;;;;;;;;;;4857506;29;21081;-68
2022/06/06 07:55:54;;;;;;;8.37;3.90;;;;;;;;;;4857662;29;20229;-68
2022/06/06 07:58:30;;;;;;;5.37;3.77;;;;;;;;;;4857710;29;20308;-68
2022/06/06 08:01:09;;;;;;;6.43;4.40;;;;;;;;;;4856875;29;20189;-68
2022/06/06 08:03:45;;;;;;;7.50;4.07;;;;;;;;;;4841893;29;20626;-68
2022/06/06 08:06:19;;;;;;;7.77;4.07;;;;;;;;;;4857696;29;20197;-68
2022/06/06 08:08:50;;;;;;;5.27;4.20;;;;;;;;;;4837958;29;20288;-70
2022/06/06 08:11:39;;;;;;;5.87;3.87;;;;;;;;;;4856530;29;20229;-69
2022/06/06 08:14:06;;;;;;;4.37;3.20;;;;;;;;;;4857876;29;20706;-69
2022/06/06 08:16:47;;;;;;;6.03;3.47;;;;;;;;;;4848557;29;20765;-68
2022/06/06 08:19:17;;;;;;;4.77;3.50;;;;;;;;;;4826133;29;20227;-70
2022/06/06 08:21:47;;;;;;;5.60;3.50;;;;;;;;;;4857645;29;20190;-68
2022/06/06 08:24:24;;;;;;;6.37;3.93;;;;;;;;;;4857651;29;20216;-69
2022/06/06 08:27:11;;;;;;;4.50;4.10;;;;;;;;;;4857129;29;20229;-68
2022/06/06 08:29:39;;;;;;;4.47;3.60;;;;;;;;;;4841223;29;20205;-68
2022/06/06 08:32:06;;;;;;;4.97;4.37;;;;;;;;;;4838686;29;20201;-69
2022/06/06 08:34:33;;;;;;;4.80;4.40;;;;;;;;;;4857590;29;20189;-68
2022/06/06 08:37:04;;;;;;;4.93;4.37;;;;;;;;;;4841126;29;20245;-69
2022/06/06 08:39:36;;;;;;;5.77;4.57;;;;;;;;;;4857506;29;20307;-68
2022/06/06 08:42:09;;;;;;;4.63;4.13;;;;;;;;;;4840906;29;20268;-68
2022/06/06 08:45:01;;;;;;;6.70;4.23;;;;;;;;;;4852951;29;20201;-68
2022/06/06 08:47:32;;;;;;;4.50;4.10;;;;;;;;;;4856181;29;20202;-69
2022/06/06 08:53:29;;;;;;;4.57;4.17;;;;;;;;;;4851222;29;20201;-68
2022/06/06 08:56:14;;;;;;;4.60;4.20;;;;;;;;;;4830541;29;21013;-69
2022/06/06 08:58:54;;;;;;;5.20;4.70;;;;;;;;;;4856040;29;20242;-68
2022/06/06 09:01:21;;;;;;;5.67;4.30;;;;;;;;;;4857087;29;20205;-68
2022/06/06 09:04:26;;;;;;;6.83;4.60;;;;;;;;;;4853720;29;20662;-68
2022/06/06 09:07:06;;;;;;;6.93;5.10;;;;;;;;;;4856831;29;20197;-68
2022/06/06 09:09:38;;;;;;;6.00;3.90;;;;;;;;;;4840678;29;20205;-68
2022/06/06 09:12:34;;;;;;;7.47;4.30;;;;;;;;;;4856070;29;20189;-67
2022/06/06 09:15:01;;;;;;;4.90;4.20;;;;;;;;;;4856742;29;20278;-69
2022/06/06 09:17:42;;;;;;;4.50;4.10;;;;;;;;;;4856344;29;20196;-69
2022/06/06 09:20:09;;;;;;;15.80;5.00;;;;;;;;;;4836256;29;20226;-69
2022/06/06 09:23:05;;;;;;;5.67;4.27;;;;;;;;;;4856234;29;20215;-68
2022/06/06 09:25:52;;;;;;;4.90;3.80;;;;;;;;;;4866574;29;20744;-68
2022/06/06 09:28:48;;;;;;;5.17;4.13;;;;;;;;;;4830364;29;20182;-69
2022/06/06 09:31:17;;;;;;;4.97;4.20;;;;;;;;;;4853371;29;20209;-68
2022/06/06 09:33:49;;;;;;;5.07;4.20;;;;;;;;;;4857780;29;20208;-69
2022/06/06 09:36:23;;;;;;;5.03;4.60;;;;;;;;;;4835859;29;20254;-69
2022/06/06 09:39:13;;;;;;;5.30;4.00;;;;;;;;;;4856839;29;20300;-69
2022/06/06 09:41:47;;;;;;;6.17;4.10;;;;;;;;;;4855671;29;20235;-69
2022/06/06 09:44:22;;;;;;;5.77;4.13;;;;;;;;;;4844216;29;20224;-69
2022/06/06 09:47:08;;;;;;;6.07;4.27;;;;;;;;;;4859811;29;20227;-68
2022/06/06 09:49:53;;;;;;;4.83;3.77;;;;;;;;;;4866962;29;20303;-68
2022/06/06 09:52:23;;;;;;;5.40;4.00;;;;;;;;;;4867483;29;20263;-68
2022/06/06 10:01:11;;;;;;;5.07;4.17;;;;;;;;;;4858469;29;20223;-69
2022/06/06 10:03:47;;;;;;;5.10;4.60;;;;;;;;;;4870555;29;20204;-69
2022/06/06 10:06:29;;;;;;;4.27;3.87;;;;;;;;;;4854623;29;20207;-69
2022/06/06 10:09:15;;;;;;;7.03;3.97;;;;;;;;;;4842430;29;20251;-68
2022/06/06 10:11:42;;;;;;;3.20;2.70;;;;;;;;;;4859415;29;20220;-69
2022/06/06 10:14:14;;;;;;;3.60;2.73;;;;;;;;;;4855896;29;20539;-68
2022/06/06 10:17:00;;;;;;;3.00;2.70;;;;;;;;;;4855808;29;20221;-69
2022/06/06 10:19:39;;;;;;;5.50;3.20;;;;;;;;;;4855907;29;20675;-67
2022/06/06 10:22:05;;;;;;;3.10;2.80;;;;;;;;;;4855456;29;20201;-68
2022/06/06 10:24:40;;;;;;;4.63;2.60;;;;;;;;;;4855460;29;20250;-68
2022/06/06 10:27:09;;;;;;;3.23;2.77;;;;;;;;;;4839018;29;20204;-68
2022/06/06 10:32:28;;;;;;;5.23;3.70;;;;;;;;;;4848030;29;20325;-68
2022/06/06 10:35:10;;;;;;;3.80;2.87;;;;;;;;;;4855044;29;20193;-68
2022/06/06 10:37:47;;;;;;;3.37;3.03;;;;;;;;;;4855899;29;20285;-68
2022/06/06 10:40:17;;;;;;;4.57;3.37;;;;;;;;;;4838848;29;20206;-69
2022/06/06 10:42:52;;;;;;;4.37;3.20;;;;;;;;;;4857402;29;20243;-68
2022/06/06 10:45:22;;;;;;;3.50;3.20;;;;;;;;;;4843972;29;20272;-68
2022/06/06 10:48:04;;;;;;;5.60;3.47;;;;;;;;;;4860342;29;20202;-68
2022/06/06 10:51:36;;;;;;;4.67;3.93;;;;;;;;;;4845887;29;20233;-68
2022/06/06 10:54:22;;;;;;;4.20;3.43;;;;;;;;;;4818414;29;20218;-69
2022/06/06 10:56:49;;;;;;;3.60;3.03;;;;;;;;;;4867919;29;20232;-68
2022/06/06 10:59:18;;;;;;;4.20;3.50;;;;;;;;;;4871947;29;20193;-68
2022/06/06 11:01:48;;;;;;;3.60;3.30;;;;;;;;;;4871533;29;20211;-69
2022/06/06 11:04:31;;;;;;;4.93;2.90;;;;;;;;;;4872072;29;20223;-68
2022/06/06 11:07:21;;;;;;;4.00;3.27;;;;;;;;;;4867069;29;20252;-69
2022/06/06 11:09:52;;;;;;;3.73;2.97;;;;;;;;;;4860782;29;20208;-68
2022/06/06 11:12:37;;;;;;;5.40;3.07;;;;;;;;;;4862190;29;20197;-69
2022/06/06 11:15:04;;;;;;;4.83;3.20;;;;;;;;;;4866855;29;20208;-68
2022/06/06 11:17:40;;;;;;;3.53;3.23;;;;;;;;;;4865815;29;20717;-68
2022/06/06 11:20:07;;;;;;;3.60;3.30;;;;;;;;;;4853844;29;20208;-68
2022/06/06 11:22:53;;;;;;;3.67;3.03;;;;;;;;;;4857265;29;20542;-68
2022/06/06 11:25:58;;;;;;;3.60;2.90;;;;;;;;;;4868407;29;20177;-68
2022/06/06 11:28:35;;;;;;;5.40;3.40;;;;;;;;;;4859060;29;20658;-68
2022/06/06 11:31:02;;;;;;;3.60;3.30;;;;;;;;;;4848402;29;20196;-69
2022/06/06 11:33:39;;;;;;;3.80;3.30;;;;;;;;;;4866224;29;20212;-68
2022/06/06 11:36:08;;;;;;;5.33;3.03;;;;;;;;;;4860902;29;20205;-68
2022/06/06 11:38:37;;;;;;;4.53;3.30;;;;;;;;;;4866119;29;20193;-68
2022/06/06 11:41:12;;;;;;;3.43;2.87;;;;;;;;;;4872416;29;20237;-67
2022/06/06 11:43:58;;;;;;;3.10;2.80;;;;;;;;;;4875448;29;20265;-67
2022/06/06 11:46:40;;;;;;;4.00;3.03;;;;;;;;;;4861868;29;20197;-68
2022/06/06 11:49:22;;;;;;;3.97;3.10;;;;;;;;;;4865556;29;20730;-68
2022/06/06 11:51:55;;;;;;;4.30;3.10;;;;;;;;;;4864925;29;20279;-68
2022/06/06 11:54:34;;;;;;;3.37;3.07;;;;;;;;;;4841967;29;20741;-68
2022/06/06 11:57:20;;;;;;;3.13;2.83;;;;;;;;;;4868780;29;20232;-69
2022/06/06 11:59:56;;;;;;;4.73;3.03;;;;;;;;;;4867810;29;20204;-68
2022/06/06 12:02:41;;;;;;;6.27;3.43;;;;;;;;;;4867802;29;20204;-69
2022/06/06 12:05:30;;;;;;;3.70;3.40;;;;;;;;;;4864920;29;20248;-68
2022/06/06 12:08:15;;;;;;;3.93;3.50;;;;;;;;;;4843624;29;20191;-68
2022/06/06 12:10:48;;;;;;;4.47;3.60;;;;;;;;;;4853527;29;20694;-68
2022/06/06 12:13:24;;;;;;;4.53;3.90;;;;;;;;;;4867414;29;20221;-68
2022/06/06 12:15:54;;;;;;;6.93;4.40;;;;;;;;;;4872071;29;20255;-68
2022/06/06 12:18:36;;;;;;;4.50;3.80;;;;;;;;;;4862159;29;20239;-68
2022/06/06 12:21:22;;;;;;;5.00;3.70;;;;;;;;;;4843918;29;20204;-68
2022/06/06 12:24:05;;;;;;;4.43;3.90;;;;;;;;;;4846856;29;20202;-68
2022/06/06 12:26:35;;;;;;;4.80;4.30;;;;;;;;;;4862382;29;20206;-68
2022/06/06 12:29:17;;;;;;;4.50;4.10;;;;;;;;;;4874706;29;20204;-69
2022/06/06 12:32:00;;;;;;;4.90;3.70;;;;;;;;;;4864500;29;20202;-68
2022/06/06 12:34:34;;;;;;;3.90;3.60;;;;;;;;;;4847388;29;20209;-68
2022/06/06 12:37:13;;;;;;;4.80;4.00;;;;;;;;;;4851542;29;20235;-68
2022/06/06 12:39:46;;;;;;;7.27;4.13;;;;;;;;;;4844869;29;20284;-68
2022/06/06 12:42:35;;;;;;;4.70;4.27;;;;;;;;;;4841438;29;20225;-68
2022/06/06 12:45:22;;;;;;;4.53;4.03;;;;;;;;;;4814120;29;20197;-68
2022/06/06 12:47:56;;;;;;;10.70;4.70;;;;;;;;;;4857368;29;20316;-69
2022/06/06 12:50:29;;;;;;;5.97;4.10;;;;;;;;;;4856738;29;20204;-68
2022/06/06 12:53:02;;;;;;;5.10;4.27;;;;;;;;;;4840110;29;20190;-67
2022/06/06 12:55:38;;;;;;;4.70;4.30;;;;;;;;;;4828460;29;20578;-70
2022/06/06 12:58:08;;;;;;;7.50;4.07;;;;;;;;;;4855809;29;20200;-69
2022/06/06 13:01:40;;;;;;;4.80;4.40;;;;;;;;;;4855926;29;20200;-68
2022/06/06 13:03:36;;;;;;;6.40;4.00;;;;;;;;;;4844575;29;20249;-68
2022/06/06 13:06:12;;;;;;;6.80;4.73;;;;;;;;;;4868955;29;20205;-68
2022/06/06 13:08:48;;;;;;;5.57;4.10;;;;;;;;;;4837931;29;20527;-69
2022/06/06 13:11:33;;;;;;;7.37;5.00;;;;;;;;;;4834950;29;20190;-68
2022/06/06 13:14:05;;;;;;;5.50;4.80;;;;;;;;;;4855656;29;20301;-68
2022/06/06 13:16:38;;;;;;;6.13;4.73;;;;;;;;;;4852534;29;20312;-68
2022/06/06 13:19:23;;;;;;;4.80;4.40;;;;;;;;;;4856354;29;20200;-68
2022/06/06 13:21:54;;;;;;;7.57;5.07;;;;;;;;;;4838205;29;20583;-67
2022/06/06 13:24:26;;;;;;;8.30;4.43;;;;;;;;;;4853683;29;20352;-68
2022/06/06 13:26:53;;;;;;;5.37;4.60;;;;;;;;;;4853235;29;20190;-68
2022/06/06 13:29:25;;;;;;;7.80;4.50;;;;;;;;;;4849637;29;20257;-68
2022/06/06 13:32:12;;;;;;;5.43;4.83;;;;;;;;;;4842074;29;20653;-68
2022/06/06 13:34:45;;;;;;;7.20;4.70;;;;;;;;;;4868422;29;20199;-67
2022/06/06 13:37:42;;;;;;;6.03;4.90;;;;;;;;;;4874338;29;20224;-67
2022/06/06 13:40:09;;;;;;;6.37;5.07;;;;;;;;;;4843829;29;20253;-68
2022/06/06 13:43:01;;;;;;;5.63;4.80;;;;;;;;;;4851594;29;20177;-68
2022/06/06 13:45:39;;;;;;;6.73;4.80;;;;;;;;;;4857510;29;20212;-71
2022/06/06 13:48:07;;;;;;;7.07;4.70;;;;;;;;;;4833303;29;20313;-71
2022/06/06 13:50:52;;;;;;;5.53;4.83;;;;;;;;;;4853958;29;20197;-70
2022/06/06 13:53:24;;;;;;;6.70;4.60;;;;;;;;;;4859238;29;20213;-70
2022/06/06 13:56:17;;;;;;;5.10;4.60;;;;;;;;;;4852510;29;20200;-69
2022/06/06 13:59:20;;;;;;;7.23;5.00;;;;;;;;;;4856814;29;20219;-70
2022/06/06 14:02:06;;;;;;;7.30;4.90;;;;;;;;;;4857781;29;20200;-70
2022/06/06 14:04:52;;;;;;;8.07;4.97;;;;;;;;;;4864152;29;20596;-69
2022/06/06 14:07:23;;;;;;;7.47;5.00;;;;;;;;;;4861597;29;20317;-69
2022/06/06 14:10:11;;;;;;;6.97;4.50;;;;;;;;;;4853295;29;20284;-71
2022/06/06 14:12:57;;;;;;;6.70;4.80;;;;;;;;;;4841738;29;20241;-70
2022/06/06 14:15:25;;;;;;;6.73;4.47;;;;;;;;;;4861472;29;20188;-69
2022/06/06 14:17:53;;;;;;;5.67;4.60;;;;;;;;;;4837830;29;20320;-70
2022/06/06 14:20:37;;;;;;;7.53;4.33;;;;;;;;;;4837236;29;20223;-70
2022/06/06 14:23:21;;;;;;;5.17;4.33;;;;;;;;;;4840223;29;20201;-69
2022/06/06 14:25:48;;;;;;;5.63;3.87;;;;;;;;;;4837466;29;20212;-68
2022/06/06 14:28:17;;;;;;;6.03;4.03;;;;;;;;;;4862525;29;20831;-70
2022/06/06 14:30:47;;;;;;;10.47;4.13;;;;;;;;;;4858182;29;20193;-72
2022/06/06 14:33:21;;;;;;;6.67;4.73;;;;;;;;;;4835672;29;20245;-71
2022/06/06 14:35:48;;;;;;;6.10;4.40;;;;;;;;;;4835595;29;20214;-74
2022/06/06 14:38:16;;;;;;;9.47;4.33;;;;;;;;;;4840355;29;20236;-72
2022/06/06 14:40:45;;;;;;;8.53;4.47;;;;;;;;;;4850432;29;20232;-72
2022/06/06 14:43:32;;;;;;;7.13;3.97;;;;;;;;;;4823868;29;20276;-72
2022/06/06 14:45:59;;;;;;;5.50;4.10;;;;;;;;;;4835711;29;20323;-71
2022/06/06 14:48:40;;;;;;;8.30;4.33;;;;;;;;;;4856803;29;20189;-71
2022/06/06 14:51:07;;;;;;;7.13;4.37;;;;;;;;;;4837671;29;20288;-67
2022/06/06 14:53:54;;;;;;;7.97;4.60;;;;;;;;;;4852566;29;20242;-69
2022/06/06 14:56:30;;;;;;;7.30;4.40;;;;;;;;;;4837257;29;20246;-70
2022/06/06 14:58:59;;;;;;;8.60;4.83;;;;;;;;;;4837625;29;20950;-72
2022/06/06 15:01:26;;;;;;;6.43;4.00;;;;;;;;;;4831036;29;20669;-70
2022/06/06 15:03:54;;;;;;;6.60;4.07;;;;;;;;;;4834115;29;20236;-70
2022/06/06 15:06:28;;;;;;;4.53;4.13;;;;;;;;;;4854353;29;20196;-70
2022/06/06 15:09:12;;;;;;;6.30;4.07;;;;;;;;;;4860009;29;20205;-71
2022/06/06 15:11:41;;;;;;;5.77;4.07;;;;;;;;;;4838052;29;20196;-71
2022/06/06 15:14:10;;;;;;;6.30;4.30;;;;;;;;;;4833683;29;20217;-70
2022/06/06 15:16:37;;;;;;;5.83;4.40;;;;;;;;;;4837712;29;20705;-69
2022/06/06 15:19:05;;;;;;;5.63;4.10;;;;;;;;;;4854658;29;20206;-70
2022/06/06 15:21:39;;;;;;;5.83;4.10;;;;;;;;;;4853200;29;20602;-70
2022/06/06 15:24:15;;;;;;;10.23;4.07;;;;;;;;;;4837866;29;20745;-70
2022/06/06 15:27:04;;;;;;;7.13;4.30;;;;;;;;;;4847079;29;21050;-69
2022/06/06 15:29:35;;;;;;;6.83;4.57;;;;;;;;;;4818921;29;21581;-71
2022/06/06 15:32:05;;;;;;;4.87;3.90;;;;;;;;;;4859678;29;21068;-69
2022/06/06 15:34:35;;;;;;;6.40;3.80;;;;;;;;;;4852520;29;20284;-69
2022/06/06 15:37:11;;;;;;;6.93;4.40;;;;;;;;;;4858226;29;20647;-69
2022/06/06 15:39:50;;;;;;;6.97;4.00;;;;;;;;;;4840673;29;20211;-70
2022/06/06 15:42:36;;;;;;;7.53;3.90;;;;;;;;;;4867454;29;20284;-68
2022/06/06 15:45:09;;;;;;;7.83;3.73;;;;;;;;;;4835755;29;20198;-69
2022/06/06 15:47:39;;;;;;;6.23;3.67;;;;;;;;;;4860783;29;20202;-69
2022/06/06 15:50:06;;;;;;;9.47;4.20;;;;;;;;;;4873951;29;20271;-69
2022/06/06 15:52:33;;;;;;;5.87;3.83;;;;;;;;;;4873905;29;20197;-69
2022/06/06 15:54:59;;;;;;;8.63;4.00;;;;;;;;;;4847632;29;20201;-69
2022/06/06 15:57:26;;;;;;;5.00;3.47;;;;;;;;;;4857136;29;20217;-68